Terminal Aerodrome Forecast
Issued by NWS North Platte, NE

Home | Current Version | Previous Version | Text Only | Print | Product List | Glossary On
Versions: 1 2 3 4 5 6 7 8 9 10 11 12
000
FTUS43 KLBF 262328
TAFLBF
TAF
KLBF 262328Z 2700/2724 10006KT P6SM -SHRA BKN040 OVC080
     FM270200 09005KT P6SM BKN120
     FM270900 VRB03KT 3SM BR SCT003 BKN100
     FM271100 VRB03KT 1/2SM FG OVC003
     FM271500 15006KT P6SM SCT003 BKN015
     FM271700 18006KT P6SM SCT250=

USA.gov is the U.S. government's official web portal to all federal, state and local government web resources and services.